Parrsboro, Canada
Current Conditions -  °F | °C
As of 4:00 PM on Tuesday 25 Nov 2014 (Local Time) from CYZX Reporting Station
Broken Clouds Broken Clouds  
Wind Chill: 63°   Ceiling: 25000
Heat Index: 63°   Visibility: 15mi
Dew Point: 48°   Wind: 7mph
Humidity: 59%   Direction: 260°W
Pressure: 29.79"   Gusts: NA
Location:  45.4°N, 64.32°W
Report Text: CYZX 252000Z 26006KT 15SM SCT150 BKN250 17/09 A2979 RMK AC3CI2 WNDY HILL 24013G25KT SLP090
Loading
Personal Weather Stations






























Interactive Weather Map New forecast layout! Learn more

10-Day Weather Forecast

Advertisements
Track Severe Weather on mobile